sensor_id;sensor_type;location;lat;lon;timestamp;pressure;altitude;pressure_sealevel;temperature;humidity
41596;BME280;27283;52.504;13.358;2022-08-01T00:00:25;100836.69;;;21.37;60.67
41596;BME280;27283;52.504;13.358;2022-08-01T00:03:10;100840.03;;;21.28;61.51
41596;BME280;27283;52.504;13.358;2022-08-01T00:05:42;100838.69;;;21.18;62.06
41596;BME280;27283;52.504;13.358;2022-08-01T00:08:16;100845.44;;;21.58;60.87
41596;BME280;27283;52.504;13.358;2022-08-01T00:10:48;100850.63;;;21.48;61.46
41596;BME280;27283;52.504;13.358;2022-08-01T00:13:21;100853.53;;;21.65;61.58
41596;BME280;27283;52.504;13.358;2022-08-01T00:15:53;100849.78;;;21.35;62.51
41596;BME280;27283;52.504;13.358;2022-08-01T00:18:28;100840.81;;;21.16;63.58
41596;BME280;27283;52.504;13.358;2022-08-01T00:21:00;100842.47;;;21.05;63.53
41596;BME280;27283;52.504;13.358;2022-08-01T00:23:33;100840.69;;;21.11;63.63
41596;BME280;27283;52.504;13.358;2022-08-01T00:26:05;100843.03;;;20.96;65.00
41596;BME280;27283;52.504;13.358;2022-08-01T00:28:38;100834.59;;;20.97;65.19
41596;BME280;27283;52.504;13.358;2022-08-01T00:31:10;100843.13;;;20.89;66.10
41596;BME280;27283;52.504;13.358;2022-08-01T00:33:45;100845.25;;;20.87;66.82
41596;BME280;27283;52.504;13.358;2022-08-01T00:36:17;100844.19;;;20.88;66.93
41596;BME280;27283;52.504;13.358;2022-08-01T00:38:49;100840.50;;;20.82;67.71
41596;BME280;27283;52.504;13.358;2022-08-01T00:41:21;100847.84;;;21.12;67.18
41596;BME280;27283;52.504;13.358;2022-08-01T00:43:54;100844.75;;;20.78;69.17
41596;BME280;27283;52.504;13.358;2022-08-01T00:46:26;100836.22;;;20.38;71.59
41596;BME280;27283;52.504;13.358;2022-08-01T00:49:01;100842.94;;;20.53;71.32
41596;BME280;27283;52.504;13.358;2022-08-01T00:51:39;100836.00;;;20.88;70.26
41596;BME280;27283;52.504;13.358;2022-08-01T00:54:26;100836.47;;;20.85;70.58
41596;BME280;27283;52.504;13.358;2022-08-01T00:56:58;100839.38;;;21.02;69.97
41596;BME280;27283;52.504;13.358;2022-08-01T00:59:31;100838.91;;;20.56;72.84
41596;BME280;27283;52.504;13.358;2022-08-01T01:02:04;100830.28;;;20.41;73.44
41596;BME280;27283;52.504;13.358;2022-08-01T01:04:45;100828.91;;;20.50;73.60
41596;BME280;27283;52.504;13.358;2022-08-01T01:07:23;100827.88;;;20.81;72.23
41596;BME280;27283;52.504;13.358;2022-08-01T01:10:03;100831.44;;;20.82;72.09
41596;BME280;27283;52.504;13.358;2022-08-01T01:12:44;100818.84;;;20.50;74.11
41596;BME280;27283;52.504;13.358;2022-08-01T01:15:23;100825.97;;;20.70;72.76
41596;BME280;27283;52.504;13.358;2022-08-01T01:18:02;100830.00;;;20.49;74.37
41596;BME280;27283;52.504;13.358;2022-08-01T01:20:40;100816.41;;;20.91;72.34
41596;BME280;27283;52.504;13.358;2022-08-01T01:23:27;100829.56;;;20.82;72.82
41596;BME280;27283;52.504;13.358;2022-08-01T01:26:17;100819.63;;;21.00;71.99
41596;BME280;27283;52.504;13.358;2022-08-01T01:29:12;100825.03;;;21.30;70.36
41596;BME280;27283;52.504;13.358;2022-08-01T01:31:50;100815.38;;;21.16;70.99
41596;BME280;27283;52.504;13.358;2022-08-01T01:34:23;100819.78;;;20.56;73.39
41596;BME280;27283;52.504;13.358;2022-08-01T01:36:59;100805.50;;;20.73;73.29
41596;BME280;27283;52.504;13.358;2022-08-01T01:39:35;100811.34;;;21.06;71.43
41596;BME280;27283;52.504;13.358;2022-08-01T01:42:14;100813.41;;;21.35;69.88
41596;BME280;27283;52.504;13.358;2022-08-01T01:44:51;100813.25;;;20.76;72.99
41596;BME280;27283;52.504;13.358;2022-08-01T01:47:25;100812.91;;;20.53;73.42
41596;BME280;27283;52.504;13.358;2022-08-01T01:50:00;100805.91;;;20.58;73.69
41596;BME280;27283;52.504;13.358;2022-08-01T01:52:38;100810.31;;;20.59;73.32
41596;BME280;27283;52.504;13.358;2022-08-01T01:55:12;100811.06;;;20.17;74.78
41596;BME280;27283;52.504;13.358;2022-08-01T01:57:46;100811.50;;;20.63;73.37
41596;BME280;27283;52.504;13.358;2022-08-01T02:00:23;100807.22;;;20.36;74.29
41596;BME280;27283;52.504;13.358;2022-08-01T02:02:57;100808.56;;;20.64;73.80
41596;BME280;27283;52.504;13.358;2022-08-01T02:05:30;100810.63;;;20.32;74.49
41596;BME280;27283;52.504;13.358;2022-08-01T02:08:04;100807.19;;;20.25;74.99
41596;BME280;27283;52.504;13.358;2022-08-01T02:10:37;100819.41;;;20.52;73.66
41596;BME280;27283;52.504;13.358;2022-08-01T02:13:32;100824.44;;;20.56;73.85
41596;BME280;27283;52.504;13.358;2022-08-01T02:16:09;100817.41;;;20.11;75.76
41596;BME280;27283;52.504;13.358;2022-08-01T02:18:42;100820.69;;;20.01;76.76
41596;BME280;27283;52.504;13.358;2022-08-01T02:21:22;100814.38;;;20.19;75.71
41596;BME280;27283;52.504;13.358;2022-08-01T02:24:00;100819.59;;;19.83;77.92
41596;BME280;27283;52.504;13.358;2022-08-01T02:27:09;100815.66;;;19.79;79.03
41596;BME280;27283;52.504;13.358;2022-08-01T02:29:45;100814.00;;;19.97;78.35
41596;BME280;27283;52.504;13.358;2022-08-01T02:32:25;100815.91;;;19.78;78.91
41596;BME280;27283;52.504;13.358;2022-08-01T02:35:00;100816.25;;;19.81;79.22
41596;BME280;27283;52.504;13.358;2022-08-01T02:37:38;100815.34;;;19.62;80.93
41596;BME280;27283;52.504;13.358;2022-08-01T02:40:16;100813.16;;;19.78;80.48
41596;BME280;27283;52.504;13.358;2022-08-01T02:43:03;100820.03;;;19.80;80.21
41596;BME280;27283;52.504;13.358;2022-08-01T02:45:43;100808.25;;;20.05;79.32
41596;BME280;27283;52.504;13.358;2022-08-01T02:48:21;100804.44;;;19.88;79.75
41596;BME280;27283;52.504;13.358;2022-08-01T02:51:01;100811.72;;;19.94;79.70
41596;BME280;27283;52.504;13.358;2022-08-01T02:53:35;100812.91;;;20.35;77.34
41596;BME280;27283;52.504;13.358;2022-08-01T02:56:13;100806.22;;;20.49;76.92
41596;BME280;27283;52.504;13.358;2022-08-01T02:58:48;100815.66;;;20.35;76.83
41596;BME280;27283;52.504;13.358;2022-08-01T03:01:24;100810.31;;;20.59;76.31
41596;BME280;27283;52.504;13.358;2022-08-01T03:04:02;100807.72;;;20.64;75.97
41596;BME280;27283;52.504;13.358;2022-08-01T03:06:36;100813.25;;;20.76;75.43
41596;BME280;27283;52.504;13.358;2022-08-01T03:09:13;100812.59;;;20.92;74.14
41596;BME280;27283;52.504;13.358;2022-08-01T03:11:47;100814.13;;;20.39;76.69
41596;BME280;27283;52.504;13.358;2022-08-01T03:14:20;100820.63;;;20.75;75.34
41596;BME280;27283;52.504;13.358;2022-08-01T03:16:56;100813.41;;;19.95;78.73
41596;BME280;27283;52.504;13.358;2022-08-01T03:19:33;100819.06;;;20.49;76.38
41596;BME280;27283;52.504;13.358;2022-08-01T03:22:08;100821.09;;;20.53;76.01
41596;BME280;27283;52.504;13.358;2022-08-01T03:24:49;100824.75;;;20.29;77.58
41596;BME280;27283;52.504;13.358;2022-08-01T03:27:23;100817.84;;;20.08;78.76
41596;BME280;27283;52.504;13.358;2022-08-01T03:29:57;100828.19;;;20.43;77.04
41596;BME280;27283;52.504;13.358;2022-08-01T03:32:30;100824.69;;;20.35;77.49
41596;BME280;27283;52.504;13.358;2022-08-01T03:35:05;100830.75;;;20.19;78.59
41596;BME280;27283;52.504;13.358;2022-08-01T03:37:40;100828.78;;;20.26;78.24
41596;BME280;27283;52.504;13.358;2022-08-01T03:40:38;100830.31;;;20.04;79.10
41596;BME280;27283;52.504;13.358;2022-08-01T03:43:16;100829.72;;;19.76;80.49
41596;BME280;27283;52.504;13.358;2022-08-01T03:45:52;100831.31;;;20.28;78.56
41596;BME280;27283;52.504;13.358;2022-08-01T03:48:28;100840.63;;;19.76;81.33
41596;BME280;27283;52.504;13.358;2022-08-01T03:51:07;100842.19;;;19.91;80.21
41596;BME280;27283;52.504;13.358;2022-08-01T03:53:41;100832.91;;;20.17;78.89
41596;BME280;27283;52.504;13.358;2022-08-01T03:56:18;100837.50;;;20.35;78.33
41596;BME280;27283;52.504;13.358;2022-08-01T03:58:51;100839.50;;;20.28;78.67
41596;BME280;27283;52.504;13.358;2022-08-01T04:01:28;100843.19;;;19.78;81.57
41596;BME280;27283;52.504;13.358;2022-08-01T04:04:01;100847.88;;;20.08;80.76
41596;BME280;27283;52.504;13.358;2022-08-01T04:06:37;100842.75;;;19.99;81.42
41596;BME280;27283;52.504;13.358;2022-08-01T04:09:11;100838.53;;;20.52;78.95
41596;BME280;27283;52.504;13.358;2022-08-01T04:11:46;100835.91;;;20.09;81.39
41596;BME280;27283;52.504;13.358;2022-08-01T04:14:18;100843.31;;;19.83;83.36
41596;BME280;27283;52.504;13.358;2022-08-01T04:16:49;100844.09;;;19.65;85.03
41596;BME280;27283;52.504;13.358;2022-08-01T04:19:22;100846.56;;;20.17;81.69
41596;BME280;27283;52.504;13.358;2022-08-01T04:21:59;100849.31;;;19.92;82.76
41596;BME280;27283;52.504;13.358;2022-08-01T04:24:32;100845.09;;;20.33;81.18
41596;BME280;27283;52.504;13.358;2022-08-01T04:27:10;100848.06;;;19.94;83.56
41596;BME280;27283;52.504;13.358;2022-08-01T04:29:43;100854.09;;;20.15;82.50
41596;BME280;27283;52.504;13.358;2022-08-01T04:32:18;100846.00;;;20.08;82.85
41596;BME280;27283;52.504;13.358;2022-08-01T04:34:54;100852.56;;;19.57;86.43
41596;BME280;27283;52.504;13.358;2022-08-01T04:37:31;100853.28;;;19.96;nan
41596;BME280;27283;52.504;13.358;2022-08-01T04:40:06;100852.09;;;19.85;85.46
41596;BME280;27283;52.504;13.358;2022-08-01T04:42:43;100857.63;;;19.78;86.32
41596;BME280;27283;52.504;13.358;2022-08-01T04:45:19;100862.25;;;19.53;88.34
41596;BME280;27283;52.504;13.358;2022-08-01T04:47:51;100864.06;;;19.59;88.28
41596;BME280;27283;52.504;13.358;2022-08-01T04:50:23;100868.47;;;19.60;89.12
41596;BME280;27283;52.504;13.358;2022-08-01T04:53:02;100872.81;;;19.42;90.54
41596;BME280;27283;52.504;13.358;2022-08-01T04:55:33;100865.09;;;19.64;88.54
41596;BME280;27283;52.504;13.358;2022-08-01T04:58:09;100872.84;;;20.11;86.28
41596;BME280;27283;52.504;13.358;2022-08-01T05:00:46;100869.88;;;19.69;87.93
41596;BME280;27283;52.504;13.358;2022-08-01T05:03:19;100874.59;;;19.80;87.91
41596;BME280;27283;52.504;13.358;2022-08-01T05:05:51;100871.91;;;19.48;90.91
41596;BME280;27283;52.504;13.358;2022-08-01T05:08:25;100863.97;;;19.47;90.79
41596;BME280;27283;52.504;13.358;2022-08-01T05:10:57;100871.13;;;19.66;89.48
41596;BME280;27283;52.504;13.358;2022-08-01T05:13:29;100875.66;;;19.54;89.93
41596;BME280;27283;52.504;13.358;2022-08-01T05:16:01;100878.09;;;20.13;86.91
41596;BME280;27283;52.504;13.358;2022-08-01T05:18:36;100870.16;;;19.86;88.12
41596;BME280;27283;52.504;13.358;2022-08-01T05:21:09;100870.19;;;19.54;90.74
41596;BME280;27283;52.504;13.358;2022-08-01T05:23:44;100880.34;;;19.72;90.40
41596;BME280;27283;52.504;13.358;2022-08-01T05:26:18;100876.22;;;19.88;89.84
41596;BME280;27283;52.504;13.358;2022-08-01T05:28:50;100869.88;;;20.50;85.29
41596;BME280;27283;52.504;13.358;2022-08-01T05:31:22;100876.53;;;19.98;89.29
41596;BME280;27283;52.504;13.358;2022-08-01T05:33:54;100871.25;;;20.04;87.48
41596;BME280;27283;52.504;13.358;2022-08-01T05:36:26;100874.72;;;19.92;89.02
41596;BME280;27283;52.504;13.358;2022-08-01T05:39:01;100874.81;;;20.04;88.77
41596;BME280;27283;52.504;13.358;2022-08-01T05:41:33;100877.53;;;20.23;87.29
41596;BME280;27283;52.504;13.358;2022-08-01T05:44:07;100880.00;;;20.31;86.54
41596;BME280;27283;52.504;13.358;2022-08-01T05:46:40;100873.22;;;20.33;86.84
41596;BME280;27283;52.504;13.358;2022-08-01T05:49:12;100875.34;;;20.50;85.19
41596;BME280;27283;52.504;13.358;2022-08-01T05:51:44;100880.03;;;20.61;85.50
41596;BME280;27283;52.504;13.358;2022-08-01T05:54:19;100886.66;;;20.53;85.76
41596;BME280;27283;52.504;13.358;2022-08-01T05:56:51;100882.25;;;20.71;84.50
41596;BME280;27283;52.504;13.358;2022-08-01T05:59:28;100891.81;;;20.43;86.10
41596;BME280;27283;52.504;13.358;2022-08-01T06:02:00;100899.00;;;20.38;86.97
41596;BME280;27283;52.504;13.358;2022-08-01T06:04:33;100892.94;;;20.91;83.86
41596;BME280;27283;52.504;13.358;2022-08-01T06:07:05;100901.50;;;20.39;86.37
41596;BME280;27283;52.504;13.358;2022-08-01T06:09:40;100895.16;;;20.64;85.29
41596;BME280;27283;52.504;13.358;2022-08-01T06:12:13;100894.94;;;20.65;84.74
41596;BME280;27283;52.504;13.358;2022-08-01T06:14:45;100895.47;;;20.18;88.45
41596;BME280;27283;52.504;13.358;2022-08-01T06:17:17;100894.91;;;20.47;86.68
41596;BME280;27283;52.504;13.358;2022-08-01T06:19:49;100891.00;;;20.43;86.49
41596;BME280;27283;52.504;13.358;2022-08-01T06:22:29;100892.88;;;20.24;87.55
41596;BME280;27283;52.504;13.358;2022-08-01T06:25:09;100900.06;;;20.36;87.75
41596;BME280;27283;52.504;13.358;2022-08-01T06:27:41;100904.56;;;20.68;85.77
41596;BME280;27283;52.504;13.358;2022-08-01T06:30:14;100903.66;;;20.37;86.97
41596;BME280;27283;52.504;13.358;2022-08-01T06:32:47;100902.72;;;20.62;85.56
41596;BME280;27283;52.504;13.358;2022-08-01T06:35:19;100906.25;;;20.69;84.56
41596;BME280;27283;52.504;13.358;2022-08-01T06:37:52;100903.56;;;20.81;84.03
41596;BME280;27283;52.504;13.358;2022-08-01T06:40:26;100903.13;;;20.84;83.01
41596;BME280;27283;52.504;13.358;2022-08-01T06:42:59;100907.72;;;21.44;79.70
41596;BME280;27283;52.504;13.358;2022-08-01T06:45:31;100913.75;;;21.34;79.68
41596;BME280;27283;52.504;13.358;2022-08-01T06:48:06;100901.16;;;21.03;81.50
41596;BME280;27283;52.504;13.358;2022-08-01T06:50:38;100913.50;;;21.36;78.89
41596;BME280;27283;52.504;13.358;2022-08-01T06:53:11;100909.91;;;21.54;78.86
41596;BME280;27283;52.504;13.358;2022-08-01T06:55:46;100901.50;;;21.79;77.62
41596;BME280;27283;52.504;13.358;2022-08-01T06:58:19;100912.13;;;21.15;78.80
41596;BME280;27283;52.504;13.358;2022-08-01T07:00:59;100905.38;;;20.87;81.44
41596;BME280;27283;52.504;13.358;2022-08-01T07:03:33;100913.94;;;20.91;80.60
41596;BME280;27283;52.504;13.358;2022-08-01T07:06:23;100913.69;;;21.11;80.26
41596;BME280;27283;52.504;13.358;2022-08-01T07:08:55;100905.78;;;20.53;82.91
41596;BME280;27283;52.504;13.358;2022-08-01T07:11:41;100910.09;;;21.10;79.81
41596;BME280;27283;52.504;13.358;2022-08-01T07:14:13;100910.91;;;20.62;82.85
41596;BME280;27283;52.504;13.358;2022-08-01T07:16:45;100914.66;;;20.67;82.69
41596;BME280;27283;52.504;13.358;2022-08-01T07:19:18;100915.44;;;20.75;82.52
41596;BME280;27283;52.504;13.358;2022-08-01T07:21:50;100912.94;;;21.03;81.08
41596;BME280;27283;52.504;13.358;2022-08-01T07:24:25;100916.69;;;20.53;83.71
41596;BME280;27283;52.504;13.358;2022-08-01T07:27:00;100913.50;;;20.57;83.10
41596;BME280;27283;52.504;13.358;2022-08-01T07:29:52;100922.59;;;21.18;80.37
41596;BME280;27283;52.504;13.358;2022-08-01T07:32:24;100923.50;;;21.61;79.04
41596;BME280;27283;52.504;13.358;2022-08-01T07:34:58;100923.66;;;21.47;78.52
41596;BME280;27283;52.504;13.358;2022-08-01T07:37:30;100926.38;;;21.89;76.19
41596;BME280;27283;52.504;13.358;2022-08-01T07:40:17;100928.59;;;21.69;77.30
41596;BME280;27283;52.504;13.358;2022-08-01T07:42:51;100929.09;;;22.13;74.65
41596;BME280;27283;52.504;13.358;2022-08-01T07:45:23;100936.97;;;22.09;73.65
41596;BME280;27283;52.504;13.358;2022-08-01T07:47:55;100935.53;;;21.83;74.50
41596;BME280;27283;52.504;13.358;2022-08-01T07:50:26;100936.59;;;21.70;75.32
41596;BME280;27283;52.504;13.358;2022-08-01T07:53:01;100938.13;;;21.54;75.64
41596;BME280;27283;52.504;13.358;2022-08-01T07:55:33;100936.56;;;21.58;75.45
41596;BME280;27283;52.504;13.358;2022-08-01T07:58:07;100942.72;;;20.93;77.01
41596;BME280;27283;52.504;13.358;2022-08-01T08:00:39;100944.56;;;20.81;78.17
41596;BME280;27283;52.504;13.358;2022-08-01T08:03:13;100947.22;;;21.18;77.20
41596;BME280;27283;52.504;13.358;2022-08-01T08:05:45;100944.88;;;20.91;78.31
41596;BME280;27283;52.504;13.358;2022-08-01T08:08:27;100955.28;;;20.82;79.52
41596;BME280;27283;52.504;13.358;2022-08-01T08:11:01;100953.75;;;20.86;78.22
41596;BME280;27283;52.504;13.358;2022-08-01T08:13:35;100954.66;;;21.29;76.76
41596;BME280;27283;52.504;13.358;2022-08-01T08:16:07;100947.63;;;21.03;77.88
41596;BME280;27283;52.504;13.358;2022-08-01T08:18:38;100947.31;;;21.41;75.42
41596;BME280;27283;52.504;13.358;2022-08-01T08:21:10;100960.41;;;21.39;74.94
41596;BME280;27283;52.504;13.358;2022-08-01T08:23:41;100967.38;;;21.05;74.81
41596;BME280;27283;52.504;13.358;2022-08-01T08:26:25;100968.56;;;21.28;74.31
41596;BME280;27283;52.504;13.358;2022-08-01T08:28:59;100959.91;;;21.73;72.18
41596;BME280;27283;52.504;13.358;2022-08-01T08:31:35;100965.00;;;21.57;72.49
41596;BME280;27283;52.504;13.358;2022-08-01T08:34:20;100962.50;;;21.56;73.18
41596;BME280;27283;52.504;13.358;2022-08-01T08:36:52;100962.38;;;21.32;73.30
41596;BME280;27283;52.504;13.358;2022-08-01T08:39:26;100958.81;;;21.74;71.79
41596;BME280;27283;52.504;13.358;2022-08-01T08:42:11;100966.28;;;22.09;71.65
41596;BME280;27283;52.504;13.358;2022-08-01T08:44:45;100967.16;;;21.37;72.31
41596;BME280;27283;52.504;13.358;2022-08-01T08:47:17;100972.91;;;21.47;72.82
41596;BME280;27283;52.504;13.358;2022-08-01T08:49:52;100971.22;;;21.46;72.33
41596;BME280;27283;52.504;13.358;2022-08-01T08:52:26;100970.25;;;21.40;72.25
41596;BME280;27283;52.504;13.358;2022-08-01T08:54:58;100966.47;;;21.41;72.57
41596;BME280;27283;52.504;13.358;2022-08-01T08:57:30;100968.16;;;21.85;70.90
41596;BME280;27283;52.504;13.358;2022-08-01T09:00:06;100972.97;;;21.59;70.68
41596;BME280;27283;52.504;13.358;2022-08-01T09:02:41;100974.31;;;21.68;70.68
41596;BME280;27283;52.504;13.358;2022-08-01T09:05:13;100976.94;;;21.87;69.34
41596;BME280;27283;52.504;13.358;2022-08-01T09:07:48;100972.31;;;22.11;67.31
41596;BME280;27283;52.504;13.358;2022-08-01T09:10:20;100975.41;;;22.15;67.77
41596;BME280;27283;52.504;13.358;2022-08-01T09:13:05;100975.94;;;21.57;68.07
41596;BME280;27283;52.504;13.358;2022-08-01T09:15:45;100977.91;;;21.81;67.90
41596;BME280;27283;52.504;13.358;2022-08-01T09:18:31;100981.59;;;21.98;67.87
41596;BME280;27283;52.504;13.358;2022-08-01T09:21:13;100989.59;;;22.23;67.02
41596;BME280;27283;52.504;13.358;2022-08-01T09:23:48;100990.31;;;22.19;67.05
41596;BME280;27283;52.504;13.358;2022-08-01T09:26:30;100998.03;;;21.86;68.18
41596;BME280;27283;52.504;13.358;2022-08-01T09:29:05;100996.25;;;22.04;67.97
41596;BME280;27283;52.504;13.358;2022-08-01T09:31:44;101000.69;;;22.17;67.60
41596;BME280;27283;52.504;13.358;2022-08-01T09:34:27;100996.13;;;21.99;67.53
41596;BME280;27283;52.504;13.358;2022-08-01T09:37:01;101001.09;;;21.78;68.29
41596;BME280;27283;52.504;13.358;2022-08-01T09:39:37;101001.09;;;21.78;68.61
41596;BME280;27283;52.504;13.358;2022-08-01T09:42:23;101009.25;;;21.54;68.85
41596;BME280;27283;52.504;13.358;2022-08-01T09:44:57;101006.69;;;21.95;67.76
41596;BME280;27283;52.504;13.358;2022-08-01T09:47:40;101010.19;;;21.60;69.34
41596;BME280;27283;52.504;13.358;2022-08-01T09:50:13;101016.25;;;22.16;67.49
41596;BME280;27283;52.504;13.358;2022-08-01T09:52:53;101012.78;;;21.85;69.63
41596;BME280;27283;52.504;13.358;2022-08-01T09:55:27;101027.94;;;21.57;70.72
41596;BME280;27283;52.504;13.358;2022-08-01T09:57:59;101024.06;;;21.89;70.39
41596;BME280;27283;52.504;13.358;2022-08-01T10:00:34;101031.50;;;21.39;71.04
41596;BME280;27283;52.504;13.358;2022-08-01T10:03:25;101028.50;;;22.02;68.72
41596;BME280;27283;52.504;13.358;2022-08-01T10:06:00;101029.97;;;22.28;67.39
41596;BME280;27283;52.504;13.358;2022-08-01T10:08:52;101034.03;;;22.37;66.76
41596;BME280;27283;52.504;13.358;2022-08-01T10:11:26;101027.38;;;22.57;66.38
41596;BME280;27283;52.504;13.358;2022-08-01T10:14:04;101032.50;;;22.53;66.62
41596;BME280;27283;52.504;13.358;2022-08-01T10:16:38;101041.78;;;22.64;65.25
41596;BME280;27283;52.504;13.358;2022-08-01T10:19:14;101038.06;;;22.94;64.58
41596;BME280;27283;52.504;13.358;2022-08-01T10:21:47;101039.84;;;22.29;66.34
41596;BME280;27283;52.504;13.358;2022-08-01T10:24:28;101040.03;;;21.92;67.34
41596;BME280;27283;52.504;13.358;2022-08-01T10:27:03;101039.31;;;21.85;67.53
41596;BME280;27283;52.504;13.358;2022-08-01T10:29:49;101044.09;;;21.89;67.37
41596;BME280;27283;52.504;13.358;2022-08-01T10:32:50;101039.72;;;22.12;66.97
41596;BME280;27283;52.504;13.358;2022-08-01T10:35:26;101040.72;;;22.41;65.42
41596;BME280;27283;52.504;13.358;2022-08-01T10:38:16;101049.19;;;22.63;65.08
41596;BME280;27283;52.504;13.358;2022-08-01T10:40:50;101049.53;;;22.67;65.17
41596;BME280;27283;52.504;13.358;2022-08-01T10:43:24;101043.53;;;22.23;66.30
41596;BME280;27283;52.504;13.358;2022-08-01T10:45:56;101050.72;;;22.59;65.76
41596;BME280;27283;52.504;13.358;2022-08-01T10:48:32;101052.97;;;22.86;65.12
41596;BME280;27283;52.504;13.358;2022-08-01T10:51:14;101052.50;;;22.89;64.76
41596;BME280;27283;52.504;13.358;2022-08-01T10:53:54;101049.91;;;22.35;66.45
41596;BME280;27283;52.504;13.358;2022-08-01T10:56:39;101051.56;;;22.72;65.03
41596;BME280;27283;52.504;13.358;2022-08-01T10:59:15;101045.47;;;22.93;64.54
41596;BME280;27283;52.504;13.358;2022-08-01T11:02:11;101041.28;;;23.14;63.84
41596;BME280;27283;52.504;13.358;2022-08-01T11:05:03;101057.28;;;22.82;65.08
41596;BME280;27283;52.504;13.358;2022-08-01T11:07:48;101053.81;;;22.75;65.25
41596;BME280;27283;52.504;13.358;2022-08-01T11:10:27;101060.88;;;22.59;65.31
41596;BME280;27283;52.504;13.358;2022-08-01T11:13:04;101058.81;;;23.13;63.09
41596;BME280;27283;52.504;13.358;2022-08-01T11:15:38;101055.81;;;23.03;62.55
41596;BME280;27283;52.504;13.358;2022-08-01T11:18:30;101057.84;;;22.84;62.96
41596;BME280;27283;52.504;13.358;2022-08-01T11:21:06;101070.22;;;22.27;65.04
41596;BME280;27283;52.504;13.358;2022-08-01T11:24:01;101060.31;;;22.15;65.81
41596;BME280;27283;52.504;13.358;2022-08-01T11:26:34;101072.69;;;22.05;66.91
41596;BME280;27283;52.504;13.358;2022-08-01T11:29:17;101075.16;;;21.65;68.91
41596;BME280;27283;52.504;13.358;2022-08-01T11:31:50;101078.81;;;21.89;69.03
41596;BME280;27283;52.504;13.358;2022-08-01T11:37:28;101089.38;;;21.73;71.95
41596;BME280;27283;52.504;13.358;2022-08-01T11:40:22;101087.78;;;21.66;71.87
41596;BME280;27283;52.504;13.358;2022-08-01T11:43:16;101094.25;;;21.71;72.49
41596;BME280;27283;52.504;13.358;2022-08-01T11:45:50;101103.69;;;21.38;73.29
41596;BME280;27283;52.504;13.358;2022-08-01T11:48:26;101092.84;;;21.81;70.92
41596;BME280;27283;52.504;13.358;2022-08-01T11:50:59;101090.56;;;22.08;70.03
41596;BME280;27283;52.504;13.358;2022-08-01T11:53:31;101091.25;;;22.57;67.27
41596;BME280;27283;52.504;13.358;2022-08-01T11:56:11;101094.09;;;22.62;67.24
41596;BME280;27283;52.504;13.358;2022-08-01T11:58:45;101098.63;;;22.69;66.44
41596;BME280;27283;52.504;13.358;2022-08-01T12:01:24;101097.44;;;22.76;65.31
41596;BME280;27283;52.504;13.358;2022-08-01T12:03:57;101097.78;;;22.56;65.06
41596;BME280;27283;52.504;13.358;2022-08-01T12:06:29;101092.31;;;22.68;65.50
41596;BME280;27283;52.504;13.358;2022-08-01T12:09:16;101086.81;;;23.56;62.76
41596;BME280;27283;52.504;13.358;2022-08-01T12:11:52;101091.44;;;23.67;61.08
41596;BME280;27283;52.504;13.358;2022-08-01T12:14:24;101087.22;;;24.05;60.43
41596;BME280;27283;52.504;13.358;2022-08-01T12:16:57;101083.78;;;24.15;59.02
41596;BME280;27283;52.504;13.358;2022-08-01T12:19:30;101086.97;;;24.07;58.83
41596;BME280;27283;52.504;13.358;2022-08-01T12:22:10;101085.94;;;24.47;58.58
41596;BME280;27283;52.504;13.358;2022-08-01T12:24:44;101091.56;;;24.35;59.39
41596;BME280;27283;52.504;13.358;2022-08-01T12:27:27;101088.16;;;24.62;56.64
41596;BME280;27283;52.504;13.358;2022-08-01T12:30:02;101080.22;;;24.83;56.43
41596;BME280;27283;52.504;13.358;2022-08-01T12:32:38;101087.53;;;24.26;57.79
41596;BME280;27283;52.504;13.358;2022-08-01T12:35:13;101092.25;;;25.21;55.74
41596;BME280;27283;52.504;13.358;2022-08-01T12:37:47;101093.13;;;25.43;54.92
41596;BME280;27283;52.504;13.358;2022-08-01T12:40:21;101082.44;;;25.47;53.94
41596;BME280;27283;52.504;13.358;2022-08-01T12:42:59;101088.06;;;24.40;56.67
41596;BME280;27283;52.504;13.358;2022-08-01T12:45:34;101090.47;;;24.36;57.20
41596;BME280;27283;52.504;13.358;2022-08-01T12:48:25;101084.84;;;25.21;55.02
41596;BME280;27283;52.504;13.358;2022-08-01T12:50:59;101083.97;;;24.76;55.80
41596;BME280;27283;52.504;13.358;2022-08-01T12:53:34;101086.56;;;25.05;54.81
41596;BME280;27283;52.504;13.358;2022-08-01T12:56:10;101077.75;;;24.64;54.77
41596;BME280;27283;52.504;13.358;2022-08-01T12:58:46;101073.63;;;24.50;56.09
41596;BME280;27283;52.504;13.358;2022-08-01T13:01:25;101078.38;;;24.54;55.44
41596;BME280;27283;52.504;13.358;2022-08-01T13:04:01;101079.00;;;25.18;54.49
41596;BME280;27283;52.504;13.358;2022-08-01T13:06:35;101077.81;;;24.35;56.51
41596;BME280;27283;52.504;13.358;2022-08-01T13:09:09;101081.72;;;24.39;56.81
41596;BME280;27283;52.504;13.358;2022-08-01T13:11:43;101084.78;;;23.92;58.27
41596;BME280;27283;52.504;13.358;2022-08-01T13:14:35;101085.16;;;23.84;59.14
41596;BME280;27283;52.504;13.358;2022-08-01T13:17:10;101084.31;;;23.54;60.34
41596;BME280;27283;52.504;13.358;2022-08-01T13:19:44;101084.47;;;23.48;60.69
41596;BME280;27283;52.504;13.358;2022-08-01T13:22:18;101091.63;;;24.23;58.55
41596;BME280;27283;52.504;13.358;2022-08-01T13:24:51;101091.75;;;23.71;58.96
41596;BME280;27283;52.504;13.358;2022-08-01T13:27:23;101086.44;;;23.64;58.87
41596;BME280;27283;52.504;13.358;2022-08-01T13:30:13;101084.22;;;24.41;56.97